Time;durP1;ratioP1;P1;durP2;ratioP2;P2;SDS_P1;SDS_P2;PMS_P1;PMS_P2;Temp;Humidity;BMP_temperature;BMP_pressure;BME280_temperature;BME280_humidity;BME280_pressure;Samples;Min_cycle;Max_cycle;Signal;HPM_P1;HPM_P2
2023/02/26 00:02:05;;;;;;;4.25;2.35;;;;;;;;;;5085416;28;20094;-75
2023/02/26 00:04:37;;;;;;;5.18;1.40;;;;;;;;;;5085855;28;20047;-74
2023/02/26 00:07:07;;;;;;;9.80;1.67;;;;;;;;;;5075252;28;20039;-72
2023/02/26 00:09:37;;;;;;;4.72;1.88;;;;;;;;;;5095364;28;20062;-73
2023/02/26 00:12:11;;;;;;;4.95;1.50;;;;;;;;;;5075550;28;20051;-72
2023/02/26 00:14:42;;;;;;;5.20;1.48;;;;;;;;;;5096176;28;20059;-72
2023/02/26 00:17:16;;;;;;;4.47;1.40;;;;;;;;;;5075126;28;20051;-76
2023/02/26 00:19:47;;;;;;;6.65;1.40;;;;;;;;;;5096654;28;20048;-73
2023/02/26 00:22:18;;;;;;;10.07;1.60;;;;;;;;;;5077580;28;20040;-76
2023/02/26 00:24:48;;;;;;;6.47;1.85;;;;;;;;;;5095082;28;20054;-77
2023/02/26 00:27:18;;;;;;;4.60;2.22;;;;;;;;;;5094901;28;20044;-75
2023/02/26 00:29:50;;;;;;;12.18;2.40;;;;;;;;;;5095038;28;21552;-78
2023/02/26 00:32:21;;;;;;;3.50;2.10;;;;;;;;;;5093995;28;20055;-74
2023/02/26 00:34:51;;;;;;;7.63;3.30;;;;;;;;;;5094693;28;20040;-77
2023/02/26 00:37:53;;;;;;;12.88;3.30;;;;;;;;;;5095313;28;20048;-73
2023/02/26 00:40:36;;;;;;;7.43;2.00;;;;;;;;;;5075055;28;20054;-75
2023/02/26 00:43:14;;;;;;;8.35;3.13;;;;;;;;;;5077252;28;20598;-76
2023/02/26 00:46:02;;;;;;;5.18;2.75;;;;;;;;;;5094293;28;20044;-74
2023/02/26 00:48:54;;;;;;;6.10;3.00;;;;;;;;;;5085406;28;20055;-73
2023/02/26 00:51:39;;;;;;;10.50;2.58;;;;;;;;;;5066805;28;20419;-74
2023/02/26 00:54:16;;;;;;;5.47;2.38;;;;;;;;;;5080411;28;20404;-75
2023/02/26 00:56:48;;;;;;;6.15;2.10;;;;;;;;;;5076224;28;20059;-76
2023/02/26 00:59:20;;;;;;;7.40;2.80;;;;;;;;;;5078912;28;20040;-73
2023/02/26 01:01:51;;;;;;;10.77;2.92;;;;;;;;;;5082508;28;20051;-73
2023/02/26 01:04:23;;;;;;;6.43;2.30;;;;;;;;;;5100661;28;20044;-76
2023/02/26 01:06:56;;;;;;;9.63;2.17;;;;;;;;;;5096728;28;20510;-75
2023/02/26 01:09:30;;;;;;;4.18;1.73;;;;;;;;;;5079974;28;20073;-77
2023/02/26 01:12:07;;;;;;;15.73;3.40;;;;;;;;;;5077538;28;20529;-75
2023/02/26 01:14:38;;;;;;;6.28;2.47;;;;;;;;;;5098130;28;20073;-73
2023/02/26 01:17:29;;;;;;;12.77;2.90;;;;;;;;;;5095932;28;20071;-74
2023/02/26 01:20:21;;;;;;;9.27;2.42;;;;;;;;;;5101298;28;20040;-72
2023/02/26 01:22:58;;;;;;;6.03;2.53;;;;;;;;;;5080753;28;20044;-74
2023/02/26 01:26:01;;;;;;;5.93;2.58;;;;;;;;;;5081901;28;20047;-73
2023/02/26 01:28:31;;;;;;;5.00;2.38;;;;;;;;;;5099081;28;20047;-73
2023/02/26 01:31:07;;;;;;;8.60;2.80;;;;;;;;;;5079204;28;20055;-77
2023/02/26 01:33:46;;;;;;;8.75;2.78;;;;;;;;;;5080628;28;20082;-75
2023/02/26 01:36:23;;;;;;;10.95;2.47;;;;;;;;;;5099560;28;20040;-74
2023/02/26 01:39:03;;;;;;;12.95;2.95;;;;;;;;;;5098968;28;20036;-76
2023/02/26 01:42:02;;;;;;;5.30;2.22;;;;;;;;;;5098366;28;20059;-72
2023/02/26 01:44:57;;;;;;;7.13;2.67;;;;;;;;;;5080855;28;20040;-76
2023/02/26 01:47:38;;;;;;;8.07;2.80;;;;;;;;;;5073320;28;20055;-75
2023/02/26 01:50:20;;;;;;;11.10;2.13;;;;;;;;;;5100658;28;20394;-75
2023/02/26 01:52:50;;;;;;;3.67;2.28;;;;;;;;;;5087075;28;20059;-74
2023/02/26 01:55:25;;;;;;;13.13;2.47;;;;;;;;;;5075501;28;20044;-73
2023/02/26 01:57:58;;;;;;;12.55;2.22;;;;;;;;;;5081600;28;20053;-73
2023/02/26 02:00:30;;;;;;;6.00;2.25;;;;;;;;;;5080601;28;20059;-75
2023/02/26 02:03:01;;;;;;;6.90;2.03;;;;;;;;;;5080178;28;20414;-75
2023/02/26 02:05:38;;;;;;;6.72;2.03;;;;;;;;;;5098606;28;20035;-75
2023/02/26 02:08:11;;;;;;;4.50;1.98;;;;;;;;;;5098920;28;20541;-76
2023/02/26 02:10:46;;;;;;;3.40;1.90;;;;;;;;;;5079241;28;20040;-76
2023/02/26 02:13:58;;;;;;;4.22;2.30;;;;;;;;;;5097673;28;20048;-74
2023/02/26 02:16:28;;;;;;;9.00;2.17;;;;;;;;;;5071010;28;20043;-75
2023/02/26 02:19:32;;;;;;;13.23;2.40;;;;;;;;;;5078004;28;20055;-73
2023/02/26 02:22:58;;;;;;;18.70;2.30;;;;;;;;;;5097704;28;20036;-74
2023/02/26 02:26:05;;;;;;;10.23;2.50;;;;;;;;;;5053738;28;20060;-73
2023/02/26 02:28:38;;;;;;;10.88;2.17;;;;;;;;;;5080514;28;20047;-75
2023/02/26 02:31:15;;;;;;;8.27;2.08;;;;;;;;;;5097402;28;20048;-74
2023/02/26 02:34:10;;;;;;;;;;;;;;;;;;5098610;28;20395;-73
2023/02/26 02:36:47;;;;;;;4.82;2.05;;;;;;;;;;5071432;28;19931;-73
2023/02/26 02:39:59;;;;;;;16.67;2.90;;;;;;;;;;5087113;28;20672;-72
2023/02/26 02:42:43;;;;;;;9.98;2.42;;;;;;;;;;5040546;28;20051;-73
2023/02/26 02:45:37;;;;;;;8.68;2.60;;;;;;;;;;5087752;28;20056;-73
2023/02/26 02:48:17;;;;;;;4.43;2.20;;;;;;;;;;5068827;28;20414;-77
2023/02/26 02:50:59;;;;;;;5.30;2.65;;;;;;;;;;5069212;28;20060;-75
2023/02/26 02:53:44;;;;;;;6.30;2.45;;;;;;;;;;5068525;28;20048;-75
2023/02/26 02:56:23;;;;;;;5.75;3.28;;;;;;;;;;5087664;28;20501;-74
2023/02/26 02:59:05;;;;;;;6.13;2.28;;;;;;;;;;5086891;28;20062;-73
2023/02/26 03:01:38;;;;;;;11.43;2.85;;;;;;;;;;5067303;28;20060;-73
2023/02/26 03:04:13;;;;;;;8.90;2.38;;;;;;;;;;5068456;28;20403;-75
2023/02/26 03:06:48;;;;;;;9.10;3.25;;;;;;;;;;5067253;28;20411;-75
2023/02/26 03:09:20;;;;;;;3.88;2.63;;;;;;;;;;5087763;28;20048;-76
2023/02/26 03:11:51;;;;;;;6.55;2.45;;;;;;;;;;5068383;28;20052;-73
2023/02/26 03:14:21;;;;;;;14.55;2.60;;;;;;;;;;5087079;28;20048;-75
2023/02/26 03:17:12;;;;;;;6.32;2.92;;;;;;;;;;5068518;28;20431;-75
2023/02/26 03:20:14;;;;;;;10.57;3.40;;;;;;;;;;5068815;28;20048;-75
2023/02/26 03:22:59;;;;;;;4.28;2.63;;;;;;;;;;5061645;28;20051;-73
2023/02/26 03:25:47;;;;;;;6.70;2.75;;;;;;;;;;5082686;28;20697;-75
2023/02/26 03:28:27;;;;;;;7.07;2.58;;;;;;;;;;5065725;28;20048;-75
2023/02/26 03:31:07;;;;;;;7.53;2.63;;;;;;;;;;5067319;28;20055;-75
2023/02/26 03:34:00;;;;;;;12.85;3.08;;;;;;;;;;5067770;28;20561;-74
2023/02/26 03:36:40;;;;;;;12.85;2.58;;;;;;;;;;5067239;28;20063;-73
2023/02/26 03:39:33;;;;;;;9.50;2.50;;;;;;;;;;5066367;28;20052;-73
2023/02/26 03:42:22;;;;;;;9.10;2.90;;;;;;;;;;5068302;28;20043;-72
2023/02/26 03:45:16;;;;;;;11.15;2.38;;;;;;;;;;5068644;28;20826;-75
2023/02/26 03:47:52;;;;;;;8.57;2.53;;;;;;;;;;5068149;28;20052;-73
2023/02/26 03:50:31;;;;;;;5.45;2.42;;;;;;;;;;5067719;28;20059;-74
2023/02/26 03:53:29;;;;;;;7.18;2.65;;;;;;;;;;5044273;28;20396;-75
2023/02/26 03:56:23;;;;;;;6.07;2.60;;;;;;;;;;5067459;28;20541;-75
2023/02/26 03:59:33;;;;;;;10.00;2.50;;;;;;;;;;5086003;28;20044;-75
2023/02/26 04:03:10;;;;;;;9.52;2.63;;;;;;;;;;5089881;28;20051;-73
2023/02/26 04:05:46;;;;;;;7.15;2.30;;;;;;;;;;5068000;28;20062;-75
2023/02/26 04:08:21;;;;;;;5.43;2.30;;;;;;;;;;5067421;28;20048;-75
2023/02/26 04:10:52;;;;;;;10.80;2.65;;;;;;;;;;5087345;28;20052;-74
2023/02/26 04:13:23;;;;;;;8.70;2.63;;;;;;;;;;5068392;28;20056;-74
2023/02/26 04:15:54;;;;;;;4.18;2.03;;;;;;;;;;5067179;28;20048;-72
2023/02/26 04:18:24;;;;;;;9.40;2.28;;;;;;;;;;5066902;28;20411;-74
2023/02/26 04:20:57;;;;;;;3.15;2.20;;;;;;;;;;5086479;28;20059;-72
2023/02/26 04:23:27;;;;;;;5.45;2.35;;;;;;;;;;5067182;28;20044;-72
2023/02/26 04:25:58;;;;;;;8.40;2.50;;;;;;;;;;5067606;28;20044;-74
2023/02/26 04:28:31;;;;;;;13.77;2.72;;;;;;;;;;5067772;28;20048;-76
2023/02/26 04:31:01;;;;;;;3.65;2.55;;;;;;;;;;5083603;28;20052;-75
2023/02/26 04:33:32;;;;;;;8.07;2.33;;;;;;;;;;5053322;28;20056;-75
2023/02/26 04:36:04;;;;;;;8.13;2.33;;;;;;;;;;5071535;28;20052;-74
2023/02/26 04:38:34;;;;;;;7.28;2.80;;;;;;;;;;5071465;28;20056;-75
2023/02/26 04:41:06;;;;;;;16.55;3.05;;;;;;;;;;5071474;28;20510;-73
2023/02/26 04:43:36;;;;;;;10.35;2.83;;;;;;;;;;5070306;28;20075;-74
2023/02/26 04:46:15;;;;;;;8.23;2.60;;;;;;;;;;5071868;28;20063;-73
2023/02/26 04:48:46;;;;;;;8.60;3.08;;;;;;;;;;5089744;28;20068;-72
2023/02/26 04:51:17;;;;;;;5.70;3.10;;;;;;;;;;5071275;28;20055;-75
2023/02/26 04:53:50;;;;;;;12.15;3.22;;;;;;;;;;5071384;28;20059;-74
2023/02/26 04:56:20;;;;;;;14.35;3.42;;;;;;;;;;5070697;28;20055;-72
2023/02/26 04:58:52;;;;;;;8.95;3.20;;;;;;;;;;5071129;28;20052;-71
2023/02/26 05:01:28;;;;;;;12.23;2.80;;;;;;;;;;5070580;28;20510;-74
2023/02/26 05:04:00;;;;;;;9.90;3.35;;;;;;;;;;5070789;28;20515;-75
2023/02/26 05:06:30;;;;;;;6.10;3.47;;;;;;;;;;5070857;28;20075;-72
2023/02/26 05:09:01;;;;;;;8.05;3.70;;;;;;;;;;5089760;28;20048;-74
2023/02/26 05:11:33;;;;;;;8.00;3.83;;;;;;;;;;5070825;28;20052;-73
2023/02/26 05:14:03;;;;;;;11.10;3.67;;;;;;;;;;5071892;28;20048;-74
2023/02/26 05:16:33;;;;;;;11.20;3.22;;;;;;;;;;5070991;28;20426;-72
2023/02/26 05:19:03;;;;;;;7.28;3.17;;;;;;;;;;5071198;28;20056;-75
2023/02/26 05:21:34;;;;;;;7.70;2.80;;;;;;;;;;5071207;28;20525;-73
2023/02/26 05:24:06;;;;;;;5.45;2.78;;;;;;;;;;5070442;28;20059;-72
2023/02/26 05:26:36;;;;;;;3.95;2.25;;;;;;;;;;5070698;28;20052;-73
2023/02/26 05:29:06;;;;;;;5.32;2.85;;;;;;;;;;5070534;28;20055;-73
2023/02/26 05:31:36;;;;;;;10.18;2.88;;;;;;;;;;5070571;28;20415;-74
2023/02/26 05:34:08;;;;;;;6.20;2.63;;;;;;;;;;5070334;28;20055;-74
2023/02/26 05:36:39;;;;;;;7.38;2.50;;;;;;;;;;5089190;28;20059;-74
2023/02/26 05:39:09;;;;;;;7.07;2.75;;;;;;;;;;5089953;28;20055;-74
2023/02/26 05:41:40;;;;;;;3.80;2.72;;;;;;;;;;5072565;28;20051;-73
2023/02/26 05:44:10;;;;;;;8.02;2.83;;;;;;;;;;5091232;28;20051;-72
2023/02/26 05:46:40;;;;;;;6.70;2.88;;;;;;;;;;5091649;28;20533;-73
2023/02/26 05:49:11;;;;;;;8.65;3.05;;;;;;;;;;5093605;28;20051;-73
2023/02/26 05:51:41;;;;;;;7.82;2.60;;;;;;;;;;5090781;28;20537;-74
2023/02/26 05:54:11;;;;;;;9.07;2.67;;;;;;;;;;5092265;28;20052;-71
2023/02/26 05:56:42;;;;;;;4.72;2.58;;;;;;;;;;5089514;28;20048;-74
2023/02/26 05:59:12;;;;;;;10.68;2.83;;;;;;;;;;5089317;28;20048;-74
2023/02/26 06:01:43;;;;;;;10.43;2.85;;;;;;;;;;5088853;28;20483;-75
2023/02/26 06:04:13;;;;;;;13.00;3.58;;;;;;;;;;5089801;28;20051;-73
2023/02/26 06:06:43;;;;;;;6.32;2.90;;;;;;;;;;5088693;28;20048;-73
2023/02/26 06:09:14;;;;;;;3.70;2.78;;;;;;;;;;5088365;28;20122;-74
2023/02/26 06:11:46;;;;;;;6.20;2.75;;;;;;;;;;5088869;28;20048;-74
2023/02/26 06:14:16;;;;;;;10.40;3.25;;;;;;;;;;5088683;28;20047;-73
2023/02/26 06:16:46;;;;;;;10.93;2.97;;;;;;;;;;5089084;28;20040;-74
2023/02/26 06:19:16;;;;;;;4.00;3.13;;;;;;;;;;5088207;28;20059;-72
2023/02/26 06:21:46;;;;;;;5.85;3.08;;;;;;;;;;5088347;28;20055;-73
2023/02/26 06:24:17;;;;;;;12.93;3.25;;;;;;;;;;5088676;28;20487;-74
2023/02/26 06:26:48;;;;;;;6.63;3.22;;;;;;;;;;5088457;28;20040;-73
2023/02/26 06:29:19;;;;;;;11.93;3.92;;;;;;;;;;5087732;28;20059;-71
2023/02/26 06:31:49;;;;;;;11.90;3.85;;;;;;;;;;5087872;28;20055;-75
2023/02/26 06:34:21;;;;;;;5.45;3.47;;;;;;;;;;5088067;28;20044;-74
2023/02/26 06:36:51;;;;;;;9.52;3.72;;;;;;;;;;5088294;28;20047;-74
2023/02/26 06:39:21;;;;;;;5.57;3.45;;;;;;;;;;5069032;28;20063;-73
2023/02/26 06:41:52;;;;;;;5.25;3.53;;;;;;;;;;5086799;28;20052;-74
2023/02/26 06:44:22;;;;;;;15.35;3.63;;;;;;;;;;5087250;28;20427;-72
2023/02/26 06:46:53;;;;;;;13.20;4.18;;;;;;;;;;5072444;28;20040;-71
2023/02/26 06:49:23;;;;;;;9.13;3.25;;;;;;;;;;5088443;28;20070;-73
2023/02/26 06:51:53;;;;;;;11.93;3.83;;;;;;;;;;5088291;28;21110;-74
2023/02/26 06:54:24;;;;;;;13.38;3.88;;;;;;;;;;5087844;28;20052;-73
2023/02/26 06:56:56;;;;;;;9.30;3.45;;;;;;;;;;5087711;28;20046;-73
2023/02/26 06:59:27;;;;;;;7.00;3.15;;;;;;;;;;5068550;28;20044;-74
2023/02/26 07:01:58;;;;;;;7.95;3.67;;;;;;;;;;5087454;28;20506;-72
2023/02/26 07:04:28;;;;;;;10.40;3.05;;;;;;;;;;5087647;28;20063;-73
2023/02/26 07:06:58;;;;;;;8.13;2.97;;;;;;;;;;5088191;28;20052;-74
2023/02/26 07:09:28;;;;;;;10.10;3.40;;;;;;;;;;5068969;28;20052;-74
2023/02/26 07:11:59;;;;;;;5.75;3.35;;;;;;;;;;5087816;28;20055;-72
2023/02/26 07:14:29;;;;;;;9.13;3.45;;;;;;;;;;5087864;28;20052;-73
2023/02/26 07:17:01;;;;;;;6.53;2.90;;;;;;;;;;5087387;28;20040;-73
2023/02/26 07:19:31;;;;;;;7.38;3.38;;;;;;;;;;5087334;28;20491;-72
2023/02/26 07:22:01;;;;;;;8.40;3.00;;;;;;;;;;5086764;28;20048;-74
2023/02/26 07:24:31;;;;;;;7.38;3.08;;;;;;;;;;5087082;28;20052;-74
2023/02/26 07:27:01;;;;;;;7.15;3.10;;;;;;;;;;5087371;28;20387;-74
2023/02/26 07:29:32;;;;;;;8.38;2.92;;;;;;;;;;5087584;28;20407;-71
2023/02/26 07:32:03;;;;;;;9.90;3.15;;;;;;;;;;5086925;28;20067;-74
2023/02/26 07:34:34;;;;;;;6.30;3.15;;;;;;;;;;5087239;28;20052;-72
2023/02/26 07:37:04;;;;;;;9.30;3.47;;;;;;;;;;5086965;28;20047;-73
2023/02/26 07:39:34;;;;;;;7.80;3.05;;;;;;;;;;5086469;28;20048;-75
2023/02/26 07:42:05;;;;;;;10.27;2.83;;;;;;;;;;5087109;28;20423;-74
2023/02/26 07:44:35;;;;;;;8.55;2.92;;;;;;;;;;5086449;28;20047;-74
2023/02/26 07:47:07;;;;;;;9.05;3.40;;;;;;;;;;5086791;28;20048;-74
2023/02/26 07:49:38;;;;;;;7.85;3.30;;;;;;;;;;5087060;28;20414;-73
2023/02/26 07:52:10;;;;;;;8.75;3.53;;;;;;;;;;5087170;28;20509;-73
2023/02/26 07:54:40;;;;;;;4.22;2.75;;;;;;;;;;5087168;28;20048;-74
2023/02/26 07:57:11;;;;;;;10.25;2.50;;;;;;;;;;5086128;28;20048;-75
2023/02/26 07:59:42;;;;;;;6.00;2.67;;;;;;;;;;5086166;28;20051;-75
2023/02/26 08:02:13;;;;;;;8.35;3.40;;;;;;;;;;5087614;28;20048;-72
2023/02/26 08:04:43;;;;;;;9.32;3.40;;;;;;;;;;5086838;28;20047;-73
2023/02/26 08:07:13;;;;;;;7.68;2.50;;;;;;;;;;5086194;28;20044;-73
2023/02/26 08:09:45;;;;;;;14.52;3.13;;;;;;;;;;5069390;28;20434;-74
2023/02/26 08:12:16;;;;;;;7.43;3.28;;;;;;;;;;5086861;28;20032;-72
2023/02/26 08:14:47;;;;;;;14.48;3.25;;;;;;;;;;5086686;28;20039;-73
2023/02/26 08:17:17;;;;;;;5.90;3.08;;;;;;;;;;5069035;28;20040;-73
2023/02/26 08:19:47;;;;;;;10.13;3.70;;;;;;;;;;5086558;28;20036;-76
2023/02/26 08:22:18;;;;;;;6.60;2.78;;;;;;;;;;5068707;28;20044;-75
2023/02/26 08:24:49;;;;;;;8.93;3.15;;;;;;;;;;5086792;28;20055;-73
2023/02/26 08:27:19;;;;;;;12.45;3.40;;;;;;;;;;5051803;28;20044;-75
2023/02/26 08:29:49;;;;;;;9.15;3.58;;;;;;;;;;5086507;28;20048;-73
2023/02/26 08:32:21;;;;;;;8.15;3.35;;;;;;;;;;5086191;28;20052;-74
2023/02/26 08:34:52;;;;;;;7.45;3.05;;;;;;;;;;5087140;28;20048;-76
2023/02/26 08:37:23;;;;;;;9.48;3.88;;;;;;;;;;5085996;28;20518;-76
2023/02/26 08:39:53;;;;;;;8.52;2.67;;;;;;;;;;5086522;28;20048;-74
2023/02/26 08:42:23;;;;;;;9.52;3.17;;;;;;;;;;5086672;28;20070;-72
2023/02/26 08:44:53;;;;;;;8.13;3.22;;;;;;;;;;5086610;28;20059;-74
2023/02/26 08:47:24;;;;;;;12.10;3.15;;;;;;;;;;5087051;28;20126;-74
2023/02/26 08:49:57;;;;;;;6.85;2.88;;;;;;;;;;5086648;28;20044;-72
2023/02/26 08:52:28;;;;;;;9.23;3.10;;;;;;;;;;5068303;28;20055;-75
2023/02/26 08:54:58;;;;;;;4.22;2.80;;;;;;;;;;5086891;28;20047;-75
2023/02/26 08:57:28;;;;;;;9.82;2.97;;;;;;;;;;5068788;28;20056;-73
2023/02/26 08:59:59;;;;;;;9.95;3.05;;;;;;;;;;5086912;28;20051;-74
2023/02/26 09:02:29;;;;;;;8.27;2.72;;;;;;;;;;5086405;28;20840;-75
2023/02/26 09:04:59;;;;;;;12.38;3.17;;;;;;;;;;5086689;28;20118;-72
2023/02/26 09:07:30;;;;;;;10.00;2.97;;;;;;;;;;5086336;28;20048;-73
2023/02/26 09:10:01;;;;;;;10.52;3.28;;;;;;;;;;5086331;28;20048;-74
2023/02/26 09:12:35;;;;;;;12.48;3.45;;;;;;;;;;5086411;28;20055;-72
2023/02/26 09:15:08;;;;;;;6.32;2.97;;;;;;;;;;5086302;28;20048;-74
2023/02/26 09:17:38;;;;;;;10.02;2.85;;;;;;;;;;5067609;28;20419;-76
2023/02/26 09:20:10;;;;;;;9.45;3.25;;;;;;;;;;5088962;28;20044;-74
2023/02/26 09:22:41;;;;;;;10.57;3.55;;;;;;;;;;5071262;28;20052;-72
2023/02/26 09:25:11;;;;;;;10.32;3.22;;;;;;;;;;5089787;28;20043;-74
2023/02/26 09:27:42;;;;;;;7.95;3.00;;;;;;;;;;5089364;28;20406;-74
2023/02/26 09:30:14;;;;;;;7.40;3.03;;;;;;;;;;5089555;28;20044;-75
2023/02/26 09:32:44;;;;;;;6.90;3.13;;;;;;;;;;5089443;28;20741;-75
2023/02/26 09:35:14;;;;;;;8.60;3.42;;;;;;;;;;5089150;28;20051;-74
2023/02/26 09:37:44;;;;;;;7.72;3.78;;;;;;;;;;5089866;28;20050;-75
2023/02/26 09:40:40;;;;;;;10.32;2.72;;;;;;;;;;5089584;28;20055;-74
2023/02/26 09:43:32;;;;;;;6.25;3.33;;;;;;;;;;5089652;28;20047;-73
2023/02/26 09:46:16;;;;;;;6.97;3.40;;;;;;;;;;5089099;28;20047;-73
2023/02/26 09:48:48;;;;;;;10.93;3.47;;;;;;;;;;5089470;28;20044;-76
2023/02/26 09:51:22;;;;;;;5.65;3.13;;;;;;;;;;5089674;28;20060;-74
2023/02/26 09:53:53;;;;;;;7.80;3.30;;;;;;;;;;5088993;28;20051;-72
2023/02/26 09:56:26;;;;;;;12.57;3.67;;;;;;;;;;5089567;28;20052;-73
2023/02/26 09:58:58;;;;;;;9.30;4.00;;;;;;;;;;5089060;28;20040;-74
2023/02/26 10:01:42;;;;;;;9.23;3.63;;;;;;;;;;5088817;28;20040;-74
2023/02/26 10:04:27;;;;;;;11.30;3.80;;;;;;;;;;5089184;28;20044;-72
2023/02/26 10:07:18;;;;;;;12.52;3.85;;;;;;;;;;5072030;28;20048;-73
2023/02/26 10:10:14;;;;;;;6.68;3.38;;;;;;;;;;5089350;28;20040;-74
2023/02/26 10:12:46;;;;;;;8.45;3.70;;;;;;;;;;5062213;28;20064;-74
2023/02/26 10:15:26;;;;;;;10.18;3.85;;;;;;;;;;5088807;28;20048;-74
2023/02/26 10:18:16;;;;;;;8.40;3.92;;;;;;;;;;5088954;28;20071;-74
2023/02/26 10:20:59;;;;;;;8.02;3.75;;;;;;;;;;5088614;28;20059;-73
2023/02/26 10:23:56;;;;;;;9.20;3.53;;;;;;;;;;5070178;28;20487;-73
2023/02/26 10:26:50;;;;;;;6.10;3.30;;;;;;;;;;5081703;28;20419;-76
2023/02/26 10:29:34;;;;;;;6.70;3.10;;;;;;;;;;5088305;28;20048;-73
2023/02/26 10:32:24;;;;;;;11.18;4.07;;;;;;;;;;5088171;28;20052;-72
2023/02/26 10:35:13;;;;;;;12.82;3.85;;;;;;;;;;5088870;28;20040;-73
2023/02/26 10:38:04;;;;;;;10.23;4.55;;;;;;;;;;5087894;28;20048;-74
2023/02/26 10:40:58;;;;;;;8.63;3.92;;;;;;;;;;5088186;28;20058;-74
2023/02/26 10:43:37;;;;;;;12.35;4.30;;;;;;;;;;5088071;28;20043;-73
2023/02/26 10:46:47;;;;;;;13.38;4.47;;;;;;;;;;5088224;28;20059;-74
2023/02/26 10:49:21;;;;;;;12.80;3.25;;;;;;;;;;5078972;28;20404;-73
2023/02/26 10:51:53;;;;;;;8.48;3.60;;;;;;;;;;5088261;28;20048;-73
2023/02/26 10:54:35;;;;;;;6.20;3.88;;;;;;;;;;5088339;28;20055;-80
2023/02/26 10:57:14;;;;;;;15.20;7.75;;;;;;;;;;5088581;28;20047;-73
2023/02/26 10:59:45;;;;;;;14.38;8.70;;;;;;;;;;5088178;28;20056;-75
2023/02/26 11:02:43;;;;;;;8.93;3.60;;;;;;;;;;5087683;28;20139;-73
2023/02/26 11:05:26;;;;;;;7.45;3.30;;;;;;;;;;5088225;28;20052;-73
2023/02/26 11:08:05;;;;;;;9.13;3.97;;;;;;;;;;5087939;28;20047;-75
2023/02/26 11:10:46;;;;;;;8.95;3.53;;;;;;;;;;5088303;28;20040;-72
2023/02/26 11:13:17;;;;;;;10.40;3.15;;;;;;;;;;5052924;28;20048;-75
2023/02/26 11:15:50;;;;;;;6.10;3.53;;;;;;;;;;5070630;28;20043;-73
2023/02/26 11:18:45;;;;;;;8.60;3.30;;;;;;;;;;5087810;28;20189;-74
2023/02/26 11:21:29;;;;;;;13.25;3.45;;;;;;;;;;5068781;28;20044;-75
2023/02/26 11:24:11;;;;;;;5.30;3.10;;;;;;;;;;5087581;28;20051;-75
2023/02/26 11:26:46;;;;;;;6.22;2.88;;;;;;;;;;5087531;28;20040;-74
2023/02/26 11:29:22;;;;;;;11.60;2.97;;;;;;;;;;5087671;28;20055;-74
2023/02/26 11:31:56;;;;;;;9.77;3.10;;;;;;;;;;5068983;28;20051;-76
2023/02/26 11:34:30;;;;;;;8.05;3.30;;;;;;;;;;5069155;28;20055;-74
2023/02/26 11:37:03;;;;;;;7.05;3.40;;;;;;;;;;5087356;28;20056;-75
2023/02/26 11:39:38;;;;;;;8.30;2.70;;;;;;;;;;5087205;28;20818;-72
2023/02/26 11:42:10;;;;;;;8.85;3.67;;;;;;;;;;5087511;28;20542;-73
2023/02/26 11:44:44;;;;;;;4.90;2.97;;;;;;;;;;5087053;28;20064;-73
2023/02/26 11:47:20;;;;;;;7.75;3.25;;;;;;;;;;5087379;28;20051;-75
2023/02/26 11:49:54;;;;;;;12.52;3.30;;;;;;;;;;5087310;28;20066;-76
2023/02/26 11:52:33;;;;;;;8.52;3.20;;;;;;;;;;5068386;28;20064;-76
2023/02/26 11:55:16;;;;;;;6.20;2.90;;;;;;;;;;5086553;28;20044;-76
2023/02/26 11:57:52;;;;;;;8.95;3.40;;;;;;;;;;5086812;28;20043;-75
2023/02/26 12:00:35;;;;;;;17.23;3.70;;;;;;;;;;5086708;28;20514;-75
2023/02/26 12:03:13;;;;;;;7.97;3.58;;;;;;;;;;5069181;28;20044;-74
2023/02/26 12:05:44;;;;;;;8.90;3.58;;;;;;;;;;5086523;28;20044;-73
2023/02/26 12:08:41;;;;;;;12.23;3.40;;;;;;;;;;5087092;28;20044;-74
2023/02/26 12:11:12;;;;;;;5.88;2.58;;;;;;;;;;5085594;28;20059;-74
2023/02/26 12:14:06;;;;;;;5.90;3.13;;;;;;;;;;5086591;28;20044;-75
2023/02/26 12:17:04;;;;;;;8.95;3.05;;;;;;;;;;5087054;28;20040;-75
2023/02/26 12:19:58;;;;;;;8.10;3.70;;;;;;;;;;5086426;28;20052;-76
2023/02/26 12:22:39;;;;;;;10.25;3.90;;;;;;;;;;5086495;28;20044;-73
2023/02/26 12:25:22;;;;;;;13.90;3.80;;;;;;;;;;5086589;28;20044;-74
2023/02/26 12:28:19;;;;;;;10.07;2.78;;;;;;;;;;5096768;28;20043;-78
2023/02/26 12:31:14;;;;;;;4.78;2.63;;;;;;;;;;5108116;28;20039;-73
2023/02/26 12:34:20;;;;;;;6.75;3.38;;;;;;;;;;5108389;28;20047;-75
2023/02/26 12:37:09;;;;;;;5.45;2.80;;;;;;;;;;5108060;28;20047;-75
2023/02/26 12:39:53;;;;;;;7.38;3.58;;;;;;;;;;5106964;28;20044;-75
2023/02/26 12:42:46;;;;;;;5.72;3.17;;;;;;;;;;5089260;28;20044;-74
2023/02/26 12:45:36;;;;;;;10.85;3.83;;;;;;;;;;5107230;28;20040;-74
2023/02/26 12:48:42;;;;;;;9.30;3.28;;;;;;;;;;5107372;28;20048;-72
2023/02/26 12:51:50;;;;;;;6.38;3.35;;;;;;;;;;5107150;28;20067;-75
2023/02/26 12:54:42;;;;;;;7.43;3.10;;;;;;;;;;5090207;28;20055;-75
2023/02/26 12:57:55;;;;;;;7.18;4.13;;;;;;;;;;5092367;28;20044;-73
2023/02/26 13:00:27;;;;;;;6.38;3.67;;;;;;;;;;5066810;28;20526;-75
2023/02/26 13:02:58;;;;;;;8.48;3.88;;;;;;;;;;5110455;28;20079;-73
2023/02/26 13:05:43;;;;;;;13.02;3.45;;;;;;;;;;5110143;28;20058;-74
2023/02/26 13:08:13;;;;;;;8.90;4.07;;;;;;;;;;5110406;28;20353;-74
2023/02/26 13:10:53;;;;;;;8.63;3.65;;;;;;;;;;5110559;28;20043;-74
2023/02/26 13:13:53;;;;;;;8.10;3.80;;;;;;;;;;5110318;28;20043;-73
2023/02/26 13:16:28;;;;;;;5.85;3.88;;;;;;;;;;5110526;28;20051;-74
2023/02/26 13:19:32;;;;;;;7.63;3.22;;;;;;;;;;5110314;28;20054;-74
2023/02/26 13:22:26;;;;;;;11.75;3.83;;;;;;;;;;5068137;28;20059;-75
2023/02/26 13:25:02;;;;;;;8.85;4.05;;;;;;;;;;5110343;28;20059;-73
2023/02/26 13:27:38;;;;;;;7.80;3.45;;;;;;;;;;5092707;28;20588;-74
2023/02/26 13:30:33;;;;;;;10.02;3.28;;;;;;;;;;5090093;28;20067;-74
2023/02/26 13:33:07;;;;;;;6.88;3.63;;;;;;;;;;5089925;28;20046;-73
2023/02/26 13:35:41;;;;;;;6.75;4.47;;;;;;;;;;5089968;28;20495;-73
2023/02/26 13:38:16;;;;;;;6.05;3.78;;;;;;;;;;5090096;28;20044;-74
2023/02/26 13:41:11;;;;;;;6.70;3.38;;;;;;;;;;5089982;28;20040;-74
2023/02/26 13:44:21;;;;;;;8.10;3.25;;;;;;;;;;5054470;28;20530;-74
2023/02/26 13:47:13;;;;;;;8.30;3.63;;;;;;;;;;5054107;28;20059;-73
2023/02/26 13:50:04;;;;;;;6.88;3.42;;;;;;;;;;5099953;28;20048;-74
2023/02/26 13:52:36;;;;;;;5.65;2.60;;;;;;;;;;5098805;28;20048;-74
2023/02/26 13:55:40;;;;;;;5.55;2.53;;;;;;;;;;5099751;28;20391;-72
2023/02/26 13:58:23;;;;;;;11.75;7.15;;;;;;;;;;5098739;28;20429;-74
2023/02/26 14:01:33;;;;;;;7.82;4.93;;;;;;;;;;5095169;28;20533;-73
2023/02/26 14:04:21;;;;;;;6.38;4.50;;;;;;;;;;5099633;28;20051;-74
2023/02/26 14:07:13;;;;;;;7.38;4.10;;;;;;;;;;5096866;28;20639;-73
2023/02/26 14:09:47;;;;;;;4.80;3.63;;;;;;;;;;5098978;28;20059;-74
2023/02/26 14:12:24;;;;;;;13.40;7.30;;;;;;;;;;5097838;28;20036;-73
2023/02/26 14:14:59;;;;;;;8.73;4.03;;;;;;;;;;5097919;28;20047;-73
2023/02/26 14:17:47;;;;;;;5.90;4.60;;;;;;;;;;5106276;28;20039;-72
2023/02/26 14:20:20;;;;;;;7.47;4.18;;;;;;;;;;5109342;28;20480;-74
2023/02/26 14:23:08;;;;;;;8.45;3.88;;;;;;;;;;5091469;28;20044;-74
2023/02/26 14:26:05;;;;;;;6.20;3.80;;;;;;;;;;5090094;28;20056;-74
2023/02/26 14:28:54;;;;;;;7.63;3.78;;;;;;;;;;5108963;28;20376;-76
2023/02/26 14:31:25;;;;;;;4.97;3.53;;;;;;;;;;5108893;28;20055;-78
2023/02/26 14:33:57;;;;;;;7.03;3.90;;;;;;;;;;5108073;28;20047;-77
2023/02/26 14:37:07;;;;;;;16.02;11.80;;;;;;;;;;5109333;28;20039;-74
2023/02/26 14:39:47;;;;;;;20.77;14.00;;;;;;;;;;5107233;28;20058;-74
2023/02/26 14:42:33;;;;;;;7.25;5.68;;;;;;;;;;5109075;28;20039;-74
2023/02/26 14:45:33;;;;;;;8.80;5.80;;;;;;;;;;5108663;28;20514;-76
2023/02/26 14:48:16;;;;;;;9.90;6.13;;;;;;;;;;5108272;28;20058;-72
2023/02/26 14:51:12;;;;;;;11.30;5.80;;;;;;;;;;5108921;28;20410;-73
2023/02/26 14:53:46;;;;;;;8.30;6.13;;;;;;;;;;5108360;28;20063;-74
2023/02/26 14:56:53;;;;;;;8.45;5.50;;;;;;;;;;5108203;28;20059;-75
2023/02/26 14:59:51;;;;;;;11.40;6.55;;;;;;;;;;5108421;28;20426;-74
2023/02/26 15:02:38;;;;;;;19.13;10.48;;;;;;;;;;5108496;28;20046;-77
2023/02/26 15:05:21;;;;;;;10.10;6.93;;;;;;;;;;5108708;28;20047;-72
2023/02/26 15:08:16;;;;;;;12.20;7.15;;;;;;;;;;5108331;28;20043;-78
2023/02/26 15:10:58;;;;;;;9.60;6.70;;;;;;;;;;5107663;28;20790;-74
2023/02/26 15:13:51;;;;;;;15.15;7.55;;;;;;;;;;5108121;28;20490;-75
2023/02/26 15:16:39;;;;;;;12.13;6.32;;;;;;;;;;5107527;28;20620;-74
2023/02/26 15:19:12;;;;;;;15.40;11.63;;;;;;;;;;5107994;28;20054;-73
2023/02/26 15:21:46;;;;;;;7.22;5.45;;;;;;;;;;5108117;28;20043;-76
2023/02/26 15:24:18;;;;;;;10.38;7.20;;;;;;;;;;5108419;28;20050;-74
2023/02/26 15:26:56;;;;;;;9.13;6.28;;;;;;;;;;5089885;28;20079;-74
2023/02/26 15:29:31;;;;;;;13.05;5.63;;;;;;;;;;5108269;28;20529;-73
2023/02/26 15:32:24;;;;;;;15.88;8.10;;;;;;;;;;5107668;28;20066;-75
2023/02/26 15:35:03;;;;;;;8.80;6.95;;;;;;;;;;5089429;28;20051;-73
2023/02/26 15:37:34;;;;;;;7.85;5.50;;;;;;;;;;5107341;28;20050;-74
2023/02/26 15:40:05;;;;;;;9.40;5.43;;;;;;;;;;5107475;28;20054;-74
2023/02/26 15:42:41;;;;;;;8.80;5.28;;;;;;;;;;5089813;28;20048;-75
2023/02/26 15:45:27;;;;;;;8.98;5.40;;;;;;;;;;5107145;28;20568;-74
2023/02/26 15:48:04;;;;;;;10.18;5.90;;;;;;;;;;5089254;28;20047;-73